sensor_id;sensor_type;location;lat;lon;timestamp;P1;durP1;ratioP1;P2;durP2;ratioP2
3779;SDS011;1905;52.482;9.802;2022-07-09T00:00:36;2.70;;;1.63;;
3779;SDS011;1905;52.482;9.802;2022-07-09T00:03:04;5.80;;;1.47;;
3779;SDS011;1905;52.482;9.802;2022-07-09T00:05:31;1.90;;;1.70;;
3779;SDS011;1905;52.482;9.802;2022-07-09T00:07:59;6.20;;;1.70;;
3779;SDS011;1905;52.482;9.802;2022-07-09T00:10:26;2.20;;;2.00;;
3779;SDS011;1905;52.482;9.802;2022-07-09T00:12:54;1.93;;;1.73;;
3779;SDS011;1905;52.482;9.802;2022-07-09T00:15:23;2.80;;;1.60;;
3779;SDS011;1905;52.482;9.802;2022-07-09T00:17:51;1.60;;;1.50;;
3779;SDS011;1905;52.482;9.802;2022-07-09T00:20:19;1.97;;;1.73;;
3779;SDS011;1905;52.482;9.802;2022-07-09T00:22:46;1.70;;;1.60;;
3779;SDS011;1905;52.482;9.802;2022-07-09T00:25:14;2.83;;;1.90;;
3779;SDS011;1905;52.482;9.802;2022-07-09T00:27:42;2.23;;;1.83;;
3779;SDS011;1905;52.482;9.802;2022-07-09T00:30:09;1.50;;;1.40;;
3779;SDS011;1905;52.482;9.802;2022-07-09T00:32:39;1.80;;;1.70;;
3779;SDS011;1905;52.482;9.802;2022-07-09T00:35:07;4.57;;;1.67;;
3779;SDS011;1905;52.482;9.802;2022-07-09T00:37:35;1.83;;;1.73;;
3779;SDS011;1905;52.482;9.802;2022-07-09T00:40:03;2.47;;;2.10;;
3779;SDS011;1905;52.482;9.802;2022-07-09T00:42:31;1.93;;;1.83;;
3779;SDS011;1905;52.482;9.802;2022-07-09T00:44:58;3.50;;;2.00;;
3779;SDS011;1905;52.482;9.802;2022-07-09T00:47:26;3.70;;;1.57;;
3779;SDS011;1905;52.482;9.802;2022-07-09T00:49:55;2.80;;;1.90;;
3779;SDS011;1905;52.482;9.802;2022-07-09T00:52:23;4.60;;;2.57;;
3779;SDS011;1905;52.482;9.802;2022-07-09T00:54:51;1.93;;;1.80;;
3779;SDS011;1905;52.482;9.802;2022-07-09T00:57:18;2.00;;;1.67;;
3779;SDS011;1905;52.482;9.802;2022-07-09T00:59:46;3.13;;;2.07;;
3779;SDS011;1905;52.482;9.802;2022-07-09T01:02:14;1.90;;;1.80;;
3779;SDS011;1905;52.482;9.802;2022-07-09T01:04:42;2.40;;;2.10;;
3779;SDS011;1905;52.482;9.802;2022-07-09T01:07:10;2.70;;;2.50;;
3779;SDS011;1905;52.482;9.802;2022-07-09T01:09:38;2.50;;;2.10;;
3779;SDS011;1905;52.482;9.802;2022-07-09T01:12:07;2.57;;;2.37;;
3779;SDS011;1905;52.482;9.802;2022-07-09T01:14:35;1.97;;;1.87;;
3779;SDS011;1905;52.482;9.802;2022-07-09T01:17:03;2.23;;;2.00;;
3779;SDS011;1905;52.482;9.802;2022-07-09T01:19:32;2.87;;;2.40;;
3779;SDS011;1905;52.482;9.802;2022-07-09T01:22:02;4.20;;;3.10;;
3779;SDS011;1905;52.482;9.802;2022-07-09T01:24:32;4.93;;;2.47;;
3779;SDS011;1905;52.482;9.802;2022-07-09T01:27:00;4.70;;;3.10;;
3779;SDS011;1905;52.482;9.802;2022-07-09T01:29:29;4.90;;;2.90;;
3779;SDS011;1905;52.482;9.802;2022-07-09T01:31:56;2.30;;;2.10;;
3779;SDS011;1905;52.482;9.802;2022-07-09T01:34:24;2.60;;;2.37;;
3779;SDS011;1905;52.482;9.802;2022-07-09T01:36:52;3.20;;;2.50;;
3779;SDS011;1905;52.482;9.802;2022-07-09T01:39:21;5.70;;;2.60;;
3779;SDS011;1905;52.482;9.802;2022-07-09T01:41:48;2.17;;;1.97;;
3779;SDS011;1905;52.482;9.802;2022-07-09T01:44:16;3.60;;;2.87;;
3779;SDS011;1905;52.482;9.802;2022-07-09T01:46:43;3.70;;;2.27;;
3779;SDS011;1905;52.482;9.802;2022-07-09T01:49:11;4.90;;;2.40;;
3779;SDS011;1905;52.482;9.802;2022-07-09T01:51:39;2.83;;;2.00;;
3779;SDS011;1905;52.482;9.802;2022-07-09T01:54:06;2.73;;;2.50;;
3779;SDS011;1905;52.482;9.802;2022-07-09T01:56:35;2.57;;;2.10;;
3779;SDS011;1905;52.482;9.802;2022-07-09T01:59:03;2.20;;;2.00;;
3779;SDS011;1905;52.482;9.802;2022-07-09T02:01:30;3.90;;;2.50;;
3779;SDS011;1905;52.482;9.802;2022-07-09T02:03:58;4.03;;;2.70;;
3779;SDS011;1905;52.482;9.802;2022-07-09T02:06:26;2.30;;;2.00;;
3779;SDS011;1905;52.482;9.802;2022-07-09T02:08:53;6.83;;;3.10;;
3779;SDS011;1905;52.482;9.802;2022-07-09T02:11:21;3.60;;;2.80;;
3779;SDS011;1905;52.482;9.802;2022-07-09T02:13:50;3.97;;;2.60;;
3779;SDS011;1905;52.482;9.802;2022-07-09T02:16:18;5.27;;;2.60;;
3779;SDS011;1905;52.482;9.802;2022-07-09T02:18:45;3.03;;;2.73;;
3779;SDS011;1905;52.482;9.802;2022-07-09T02:21:13;4.07;;;3.23;;
3779;SDS011;1905;52.482;9.802;2022-07-09T02:23:40;4.00;;;2.53;;
3779;SDS011;1905;52.482;9.802;2022-07-09T02:26:08;3.10;;;2.30;;
3779;SDS011;1905;52.482;9.802;2022-07-09T02:28:35;4.73;;;3.40;;
3779;SDS011;1905;52.482;9.802;2022-07-09T02:31:04;3.97;;;2.80;;
3779;SDS011;1905;52.482;9.802;2022-07-09T02:33:32;4.77;;;3.40;;
3779;SDS011;1905;52.482;9.802;2022-07-09T02:36:00;5.47;;;3.50;;
3779;SDS011;1905;52.482;9.802;2022-07-09T02:38:28;11.60;;;2.70;;
3779;SDS011;1905;52.482;9.802;2022-07-09T02:40:55;5.83;;;3.77;;
3779;SDS011;1905;52.482;9.802;2022-07-09T02:43:23;7.60;;;2.27;;
3779;SDS011;1905;52.482;9.802;2022-07-09T02:45:51;10.00;;;3.43;;
3779;SDS011;1905;52.482;9.802;2022-07-09T02:48:23;5.17;;;3.60;;
3779;SDS011;1905;52.482;9.802;2022-07-09T02:50:51;4.60;;;3.37;;
3779;SDS011;1905;52.482;9.802;2022-07-09T02:53:19;4.07;;;2.90;;
3779;SDS011;1905;52.482;9.802;2022-07-09T02:55:47;2.97;;;2.77;;
3779;SDS011;1905;52.482;9.802;2022-07-09T02:58:14;3.60;;;2.60;;
3779;SDS011;1905;52.482;9.802;2022-07-09T03:00:42;4.03;;;3.17;;
3779;SDS011;1905;52.482;9.802;2022-07-09T03:03:10;3.60;;;3.13;;
3779;SDS011;1905;52.482;9.802;2022-07-09T03:05:39;5.63;;;3.50;;
3779;SDS011;1905;52.482;9.802;2022-07-09T03:08:06;3.73;;;3.30;;
3779;SDS011;1905;52.482;9.802;2022-07-09T03:10:34;2.73;;;2.53;;
3779;SDS011;1905;52.482;9.802;2022-07-09T03:13:02;5.00;;;3.47;;
3779;SDS011;1905;52.482;9.802;2022-07-09T03:15:35;4.57;;;3.37;;
3779;SDS011;1905;52.482;9.802;2022-07-09T03:18:03;6.87;;;2.70;;
3779;SDS011;1905;52.482;9.802;2022-07-09T03:20:34;4.30;;;3.50;;
3779;SDS011;1905;52.482;9.802;2022-07-09T03:23:03;3.93;;;3.40;;
3779;SDS011;1905;52.482;9.802;2022-07-09T03:25:31;7.00;;;3.87;;
3779;SDS011;1905;52.482;9.802;2022-07-09T03:27:59;5.43;;;2.80;;
3779;SDS011;1905;52.482;9.802;2022-07-09T03:30:27;4.00;;;3.53;;
3779;SDS011;1905;52.482;9.802;2022-07-09T03:32:55;4.23;;;3.83;;
3779;SDS011;1905;52.482;9.802;2022-07-09T03:35:22;5.40;;;3.00;;
3779;SDS011;1905;52.482;9.802;2022-07-09T03:37:50;6.10;;;4.10;;
3779;SDS011;1905;52.482;9.802;2022-07-09T03:40:19;7.80;;;5.17;;
3779;SDS011;1905;52.482;9.802;2022-07-09T03:42:46;4.57;;;3.83;;
3779;SDS011;1905;52.482;9.802;2022-07-09T03:45:14;6.30;;;3.73;;
3779;SDS011;1905;52.482;9.802;2022-07-09T03:47:42;4.20;;;3.80;;
3779;SDS011;1905;52.482;9.802;2022-07-09T03:50:09;4.10;;;3.43;;
3779;SDS011;1905;52.482;9.802;2022-07-09T03:52:38;4.53;;;3.70;;
3779;SDS011;1905;52.482;9.802;2022-07-09T03:55:06;9.13;;;4.47;;
3779;SDS011;1905;52.482;9.802;2022-07-09T03:57:35;9.60;;;3.90;;
3779;SDS011;1905;52.482;9.802;2022-07-09T04:00:03;6.30;;;4.00;;
3779;SDS011;1905;52.482;9.802;2022-07-09T04:02:37;7.43;;;3.73;;
3779;SDS011;1905;52.482;9.802;2022-07-09T04:05:05;5.57;;;4.20;;
3779;SDS011;1905;52.482;9.802;2022-07-09T04:07:35;8.50;;;3.80;;
3779;SDS011;1905;52.482;9.802;2022-07-09T04:10:03;6.17;;;4.03;;
3779;SDS011;1905;52.482;9.802;2022-07-09T04:12:31;5.50;;;3.63;;
3779;SDS011;1905;52.482;9.802;2022-07-09T04:15:00;4.80;;;3.10;;
3779;SDS011;1905;52.482;9.802;2022-07-09T04:17:28;4.20;;;3.80;;
3779;SDS011;1905;52.482;9.802;2022-07-09T04:19:56;5.33;;;3.47;;
3779;SDS011;1905;52.482;9.802;2022-07-09T04:22:23;3.33;;;3.13;;
3779;SDS011;1905;52.482;9.802;2022-07-09T04:24:57;4.57;;;3.87;;
3779;SDS011;1905;52.482;9.802;2022-07-09T04:27:24;7.73;;;4.30;;
3779;SDS011;1905;52.482;9.802;2022-07-09T04:29:52;5.60;;;4.43;;
3779;SDS011;1905;52.482;9.802;2022-07-09T04:32:21;7.30;;;3.83;;
3779;SDS011;1905;52.482;9.802;2022-07-09T04:34:48;8.17;;;3.63;;
3779;SDS011;1905;52.482;9.802;2022-07-09T04:37:16;4.10;;;3.40;;
3779;SDS011;1905;52.482;9.802;2022-07-09T04:39:44;4.37;;;3.97;;
3779;SDS011;1905;52.482;9.802;2022-07-09T04:42:11;7.03;;;4.40;;
3779;SDS011;1905;52.482;9.802;2022-07-09T04:44:39;6.67;;;3.73;;
3779;SDS011;1905;52.482;9.802;2022-07-09T04:47:08;6.10;;;4.10;;
3779;SDS011;1905;52.482;9.802;2022-07-09T04:49:37;10.00;;;4.40;;
3779;SDS011;1905;52.482;9.802;2022-07-09T04:52:05;7.37;;;4.70;;
3779;SDS011;1905;52.482;9.802;2022-07-09T04:54:33;4.80;;;3.57;;
3779;SDS011;1905;52.482;9.802;2022-07-09T04:57:01;4.63;;;3.47;;
3779;SDS011;1905;52.482;9.802;2022-07-09T04:59:29;5.40;;;4.00;;
3779;SDS011;1905;52.482;9.802;2022-07-09T05:01:56;6.83;;;3.80;;
3779;SDS011;1905;52.482;9.802;2022-07-09T05:04:24;8.53;;;3.93;;
3779;SDS011;1905;52.482;9.802;2022-07-09T05:06:53;6.83;;;4.70;;
3779;SDS011;1905;52.482;9.802;2022-07-09T05:09:20;11.37;;;4.50;;
3779;SDS011;1905;52.482;9.802;2022-07-09T05:11:48;8.70;;;4.30;;
3779;SDS011;1905;52.482;9.802;2022-07-09T05:14:16;5.63;;;4.00;;
3779;SDS011;1905;52.482;9.802;2022-07-09T05:16:43;11.07;;;5.00;;
3779;SDS011;1905;52.482;9.802;2022-07-09T05:19:11;13.43;;;4.90;;
3779;SDS011;1905;52.482;9.802;2022-07-09T05:21:39;6.63;;;4.17;;
3779;SDS011;1905;52.482;9.802;2022-07-09T05:24:09;5.80;;;4.03;;
3779;SDS011;1905;52.482;9.802;2022-07-09T05:26:36;4.77;;;3.83;;
3779;SDS011;1905;52.482;9.802;2022-07-09T05:29:04;7.30;;;4.97;;
3779;SDS011;1905;52.482;9.802;2022-07-09T05:31:32;9.60;;;5.10;;
3779;SDS011;1905;52.482;9.802;2022-07-09T05:34:01;5.17;;;4.40;;
3779;SDS011;1905;52.482;9.802;2022-07-09T05:36:29;5.83;;;4.50;;
3779;SDS011;1905;52.482;9.802;2022-07-09T05:38:57;7.97;;;5.27;;
3779;SDS011;1905;52.482;9.802;2022-07-09T05:41:27;10.70;;;5.60;;
3779;SDS011;1905;52.482;9.802;2022-07-09T05:43:55;9.00;;;6.07;;
3779;SDS011;1905;52.482;9.802;2022-07-09T05:46:23;12.37;;;6.43;;
3779;SDS011;1905;52.482;9.802;2022-07-09T05:48:51;8.57;;;5.73;;
3779;SDS011;1905;52.482;9.802;2022-07-09T05:51:18;12.60;;;5.90;;
3779;SDS011;1905;52.482;9.802;2022-07-09T05:53:46;7.37;;;5.50;;
3779;SDS011;1905;52.482;9.802;2022-07-09T05:56:14;12.43;;;5.77;;
3779;SDS011;1905;52.482;9.802;2022-07-09T05:58:42;9.50;;;6.00;;
3779;SDS011;1905;52.482;9.802;2022-07-09T06:01:10;9.97;;;6.50;;
3779;SDS011;1905;52.482;9.802;2022-07-09T06:03:39;8.30;;;6.30;;
3779;SDS011;1905;52.482;9.802;2022-07-09T06:06:07;6.40;;;5.07;;
3779;SDS011;1905;52.482;9.802;2022-07-09T06:08:35;8.40;;;5.87;;
3779;SDS011;1905;52.482;9.802;2022-07-09T06:11:05;7.57;;;5.70;;
3779;SDS011;1905;52.482;9.802;2022-07-09T06:13:33;8.23;;;5.60;;
3779;SDS011;1905;52.482;9.802;2022-07-09T06:16:01;12.20;;;6.73;;
3779;SDS011;1905;52.482;9.802;2022-07-09T06:18:29;5.07;;;4.40;;
3779;SDS011;1905;52.482;9.802;2022-07-09T06:20:57;5.37;;;4.57;;
3779;SDS011;1905;52.482;9.802;2022-07-09T06:23:27;10.30;;;5.60;;
3779;SDS011;1905;52.482;9.802;2022-07-09T06:25:54;6.30;;;4.33;;
3779;SDS011;1905;52.482;9.802;2022-07-09T06:28:22;4.90;;;4.40;;
3779;SDS011;1905;52.482;9.802;2022-07-09T06:30:50;5.50;;;4.17;;
3779;SDS011;1905;52.482;9.802;2022-07-09T06:33:19;7.70;;;4.37;;
3779;SDS011;1905;52.482;9.802;2022-07-09T06:35:46;5.80;;;3.30;;
3779;SDS011;1905;52.482;9.802;2022-07-09T06:38:14;5.07;;;4.23;;
3779;SDS011;1905;52.482;9.802;2022-07-09T06:40:42;8.40;;;5.40;;
3779;SDS011;1905;52.482;9.802;2022-07-09T06:43:09;7.00;;;4.23;;
3779;SDS011;1905;52.482;9.802;2022-07-09T06:45:45;4.87;;;4.03;;
3779;SDS011;1905;52.482;9.802;2022-07-09T06:48:13;4.87;;;3.90;;
3779;SDS011;1905;52.482;9.802;2022-07-09T06:50:43;5.13;;;4.07;;
3779;SDS011;1905;52.482;9.802;2022-07-09T06:53:10;4.80;;;3.33;;
3779;SDS011;1905;52.482;9.802;2022-07-09T06:55:38;4.90;;;3.90;;
3779;SDS011;1905;52.482;9.802;2022-07-09T06:58:05;6.07;;;3.73;;
3779;SDS011;1905;52.482;9.802;2022-07-09T07:00:33;5.97;;;3.83;;
3779;SDS011;1905;52.482;9.802;2022-07-09T07:03:01;4.20;;;3.80;;
3779;SDS011;1905;52.482;9.802;2022-07-09T07:05:29;3.87;;;3.50;;
3779;SDS011;1905;52.482;9.802;2022-07-09T07:07:58;4.63;;;4.20;;
3779;SDS011;1905;52.482;9.802;2022-07-09T07:10:26;6.63;;;3.60;;
3779;SDS011;1905;52.482;9.802;2022-07-09T07:12:53;6.37;;;4.30;;
3779;SDS011;1905;52.482;9.802;2022-07-09T07:15:22;7.63;;;3.30;;
3779;SDS011;1905;52.482;9.802;2022-07-09T07:17:49;5.77;;;3.40;;
3779;SDS011;1905;52.482;9.802;2022-07-09T07:20:23;3.93;;;3.37;;
3779;SDS011;1905;52.482;9.802;2022-07-09T07:22:51;7.00;;;4.57;;
3779;SDS011;1905;52.482;9.802;2022-07-09T07:25:20;6.83;;;3.27;;
3779;SDS011;1905;52.482;9.802;2022-07-09T07:27:48;6.53;;;3.13;;
3779;SDS011;1905;52.482;9.802;2022-07-09T07:30:16;4.57;;;2.80;;
3779;SDS011;1905;52.482;9.802;2022-07-09T07:32:44;4.63;;;2.93;;
3779;SDS011;1905;52.482;9.802;2022-07-09T07:35:11;4.03;;;3.03;;
3779;SDS011;1905;52.482;9.802;2022-07-09T07:37:39;3.13;;;2.83;;
3779;SDS011;1905;52.482;9.802;2022-07-09T07:40:07;3.43;;;3.13;;
3779;SDS011;1905;52.482;9.802;2022-07-09T07:42:38;8.17;;;2.90;;
3779;SDS011;1905;52.482;9.802;2022-07-09T07:45:09;3.60;;;2.87;;
3779;SDS011;1905;52.482;9.802;2022-07-09T07:47:45;7.30;;;4.03;;
3779;SDS011;1905;52.482;9.802;2022-07-09T07:50:12;2.80;;;2.23;;
3779;SDS011;1905;52.482;9.802;2022-07-09T07:52:40;5.13;;;2.70;;
3779;SDS011;1905;52.482;9.802;2022-07-09T07:55:13;5.37;;;2.67;;
3779;SDS011;1905;52.482;9.802;2022-07-09T07:57:42;2.60;;;2.40;;
3779;SDS011;1905;52.482;9.802;2022-07-09T08:00:10;4.63;;;2.90;;
3779;SDS011;1905;52.482;9.802;2022-07-09T08:02:38;4.90;;;2.70;;
3779;SDS011;1905;52.482;9.802;2022-07-09T08:05:06;2.30;;;2.10;;
3779;SDS011;1905;52.482;9.802;2022-07-09T08:07:34;4.17;;;3.20;;
3779;SDS011;1905;52.482;9.802;2022-07-09T08:10:02;4.47;;;2.73;;
3779;SDS011;1905;52.482;9.802;2022-07-09T08:12:30;3.83;;;2.40;;
3779;SDS011;1905;52.482;9.802;2022-07-09T08:14:59;4.77;;;2.53;;
3779;SDS011;1905;52.482;9.802;2022-07-09T08:17:29;3.93;;;2.97;;
3779;SDS011;1905;52.482;9.802;2022-07-09T08:19:56;4.13;;;3.10;;
3779;SDS011;1905;52.482;9.802;2022-07-09T08:22:24;7.93;;;2.80;;
3779;SDS011;1905;52.482;9.802;2022-07-09T08:24:52;3.83;;;2.73;;
3779;SDS011;1905;52.482;9.802;2022-07-09T08:27:19;4.50;;;2.60;;
3779;SDS011;1905;52.482;9.802;2022-07-09T08:29:47;3.60;;;2.10;;
3779;SDS011;1905;52.482;9.802;2022-07-09T08:32:17;3.27;;;2.67;;
3779;SDS011;1905;52.482;9.802;2022-07-09T08:34:44;2.93;;;2.53;;
3779;SDS011;1905;52.482;9.802;2022-07-09T08:37:12;5.30;;;2.80;;
3779;SDS011;1905;52.482;9.802;2022-07-09T08:39:39;3.80;;;2.47;;
3779;SDS011;1905;52.482;9.802;2022-07-09T08:42:08;3.10;;;2.47;;
3779;SDS011;1905;52.482;9.802;2022-07-09T08:44:37;6.73;;;2.33;;
3779;SDS011;1905;52.482;9.802;2022-07-09T08:47:08;3.93;;;3.17;;
3779;SDS011;1905;52.482;9.802;2022-07-09T08:49:39;2.97;;;2.63;;
3779;SDS011;1905;52.482;9.802;2022-07-09T08:52:08;5.93;;;2.60;;
3779;SDS011;1905;52.482;9.802;2022-07-09T08:54:37;5.80;;;2.80;;
3779;SDS011;1905;52.482;9.802;2022-07-09T08:57:05;2.70;;;2.50;;
3779;SDS011;1905;52.482;9.802;2022-07-09T08:59:33;4.80;;;2.77;;
3779;SDS011;1905;52.482;9.802;2022-07-09T09:02:03;6.00;;;2.73;;
3779;SDS011;1905;52.482;9.802;2022-07-09T09:04:31;3.13;;;2.87;;
3779;SDS011;1905;52.482;9.802;2022-07-09T09:07:12;2.80;;;2.60;;
3779;SDS011;1905;52.482;9.802;2022-07-09T09:09:40;5.47;;;3.60;;
3779;SDS011;1905;52.482;9.802;2022-07-09T09:12:09;3.63;;;2.70;;
3779;SDS011;1905;52.482;9.802;2022-07-09T09:14:36;5.73;;;2.60;;
3779;SDS011;1905;52.482;9.802;2022-07-09T09:17:05;2.70;;;2.50;;
3779;SDS011;1905;52.482;9.802;2022-07-09T09:19:35;3.13;;;2.80;;
3779;SDS011;1905;52.482;9.802;2022-07-09T09:22:03;3.63;;;2.70;;
3779;SDS011;1905;52.482;9.802;2022-07-09T09:24:33;2.83;;;2.30;;
3779;SDS011;1905;52.482;9.802;2022-07-09T09:27:01;3.83;;;2.60;;
3779;SDS011;1905;52.482;9.802;2022-07-09T09:29:29;2.90;;;2.33;;
3779;SDS011;1905;52.482;9.802;2022-07-09T09:31:57;5.53;;;3.27;;
3779;SDS011;1905;52.482;9.802;2022-07-09T09:34:24;2.87;;;2.57;;
3779;SDS011;1905;52.482;9.802;2022-07-09T09:36:52;3.07;;;2.37;;
3779;SDS011;1905;52.482;9.802;2022-07-09T09:39:21;6.30;;;2.63;;
3779;SDS011;1905;52.482;9.802;2022-07-09T09:41:52;3.93;;;2.23;;
3779;SDS011;1905;52.482;9.802;2022-07-09T09:44:21;2.80;;;2.20;;
3779;SDS011;1905;52.482;9.802;2022-07-09T09:46:52;2.30;;;1.90;;
3779;SDS011;1905;52.482;9.802;2022-07-09T09:49:20;3.07;;;2.80;;
3779;SDS011;1905;52.482;9.802;2022-07-09T09:51:50;4.80;;;2.53;;
3779;SDS011;1905;52.482;9.802;2022-07-09T09:54:23;4.10;;;2.97;;
3779;SDS011;1905;52.482;9.802;2022-07-09T09:56:52;3.00;;;2.80;;
3779;SDS011;1905;52.482;9.802;2022-07-09T09:59:21;2.80;;;2.50;;
3779;SDS011;1905;52.482;9.802;2022-07-09T10:01:50;2.80;;;2.10;;
3779;SDS011;1905;52.482;9.802;2022-07-09T10:04:18;3.10;;;2.50;;
3779;SDS011;1905;52.482;9.802;2022-07-09T10:06:47;3.80;;;2.00;;
3779;SDS011;1905;52.482;9.802;2022-07-09T10:09:15;2.20;;;1.97;;
3779;SDS011;1905;52.482;9.802;2022-07-09T10:11:44;4.70;;;2.40;;
3779;SDS011;1905;52.482;9.802;2022-07-09T10:14:31;6.73;;;2.67;;
3779;SDS011;1905;52.482;9.802;2022-07-09T10:17:10;2.97;;;2.50;;
3779;SDS011;1905;52.482;9.802;2022-07-09T10:19:50;2.63;;;2.43;;
3779;SDS011;1905;52.482;9.802;2022-07-09T10:22:19;2.53;;;2.30;;
3779;SDS011;1905;52.482;9.802;2022-07-09T10:24:49;2.43;;;2.23;;
3779;SDS011;1905;52.482;9.802;2022-07-09T10:27:18;2.50;;;2.20;;
3779;SDS011;1905;52.482;9.802;2022-07-09T10:29:54;3.03;;;2.13;;
3779;SDS011;1905;52.482;9.802;2022-07-09T10:32:24;2.23;;;2.03;;
3779;SDS011;1905;52.482;9.802;2022-07-09T10:34:56;3.67;;;3.03;;
3779;SDS011;1905;52.482;9.802;2022-07-09T10:37:32;2.90;;;2.43;;
3779;SDS011;1905;52.482;9.802;2022-07-09T10:40:04;2.20;;;2.00;;
3779;SDS011;1905;52.482;9.802;2022-07-09T10:42:36;2.23;;;2.00;;
3779;SDS011;1905;52.482;9.802;2022-07-09T10:45:16;4.20;;;2.53;;
3779;SDS011;1905;52.482;9.802;2022-07-09T10:47:52;1.80;;;1.70;;
3779;SDS011;1905;52.482;9.802;2022-07-09T10:50:20;4.93;;;1.60;;
3779;SDS011;1905;52.482;9.802;2022-07-09T10:52:49;2.17;;;1.63;;
3779;SDS011;1905;52.482;9.802;2022-07-09T10:55:17;2.20;;;1.60;;
3779;SDS011;1905;52.482;9.802;2022-07-09T10:57:45;1.30;;;1.20;;
3779;SDS011;1905;52.482;9.802;2022-07-09T11:00:14;3.53;;;1.73;;
3779;SDS011;1905;52.482;9.802;2022-07-09T11:02:53;4.33;;;1.83;;
3779;SDS011;1905;52.482;9.802;2022-07-09T11:05:22;5.40;;;1.93;;
3779;SDS011;1905;52.482;9.802;2022-07-09T11:07:58;4.80;;;1.90;;
3779;SDS011;1905;52.482;9.802;2022-07-09T11:10:27;2.67;;;1.80;;
3779;SDS011;1905;52.482;9.802;2022-07-09T11:12:57;5.50;;;1.70;;
3779;SDS011;1905;52.482;9.802;2022-07-09T11:15:26;1.67;;;1.40;;
3779;SDS011;1905;52.482;9.802;2022-07-09T11:17:58;1.70;;;1.60;;
3779;SDS011;1905;52.482;9.802;2022-07-09T11:20:31;6.03;;;1.90;;
3779;SDS011;1905;52.482;9.802;2022-07-09T11:23:00;2.80;;;2.00;;
3779;SDS011;1905;52.482;9.802;2022-07-09T11:25:28;1.93;;;1.40;;
3779;SDS011;1905;52.482;9.802;2022-07-09T11:27:55;3.10;;;2.00;;
3779;SDS011;1905;52.482;9.802;2022-07-09T11:30:24;7.30;;;1.80;;
3779;SDS011;1905;52.482;9.802;2022-07-09T11:32:55;2.40;;;1.63;;
3779;SDS011;1905;52.482;9.802;2022-07-09T11:35:25;4.00;;;1.50;;
3779;SDS011;1905;52.482;9.802;2022-07-09T11:37:57;2.50;;;1.63;;
3779;SDS011;1905;52.482;9.802;2022-07-09T11:40:26;2.37;;;1.53;;
3779;SDS011;1905;52.482;9.802;2022-07-09T11:42:55;3.40;;;1.43;;
3779;SDS011;1905;52.482;9.802;2022-07-09T11:45:24;1.63;;;1.53;;
3779;SDS011;1905;52.482;9.802;2022-07-09T11:48:01;1.67;;;1.50;;
3779;SDS011;1905;52.482;9.802;2022-07-09T11:50:32;1.60;;;1.50;;
3779;SDS011;1905;52.482;9.802;2022-07-09T11:53:01;1.73;;;1.53;;
3779;SDS011;1905;52.482;9.802;2022-07-09T11:55:29;1.80;;;1.70;;
3779;SDS011;1905;52.482;9.802;2022-07-09T11:57:58;3.90;;;1.47;;
3779;SDS011;1905;52.482;9.802;2022-07-09T12:00:30;3.13;;;1.60;;
3779;SDS011;1905;52.482;9.802;2022-07-09T12:03:00;2.30;;;1.83;;
3779;SDS011;1905;52.482;9.802;2022-07-09T12:05:29;1.90;;;1.50;;
3779;SDS011;1905;52.482;9.802;2022-07-09T12:08:00;3.13;;;1.47;;
3779;SDS011;1905;52.482;9.802;2022-07-09T12:10:29;1.60;;;1.30;;
3779;SDS011;1905;52.482;9.802;2022-07-09T12:12:59;2.00;;;1.43;;
3779;SDS011;1905;52.482;9.802;2022-07-09T12:15:27;1.97;;;1.60;;
3779;SDS011;1905;52.482;9.802;2022-07-09T12:17:56;2.97;;;2.00;;
3779;SDS011;1905;52.482;9.802;2022-07-09T12:20:25;2.20;;;1.30;;
3779;SDS011;1905;52.482;9.802;2022-07-09T12:22:54;4.20;;;1.67;;
3779;SDS011;1905;52.482;9.802;2022-07-09T12:25:23;2.50;;;1.70;;
3779;SDS011;1905;52.482;9.802;2022-07-09T12:27:51;2.57;;;1.83;;
3779;SDS011;1905;52.482;9.802;2022-07-09T12:30:19;1.90;;;1.50;;
3779;SDS011;1905;52.482;9.802;2022-07-09T12:32:47;1.40;;;1.30;;
3779;SDS011;1905;52.482;9.802;2022-07-09T12:35:15;4.43;;;1.53;;
3779;SDS011;1905;52.482;9.802;2022-07-09T12:37:43;3.63;;;1.80;;
3779;SDS011;1905;52.482;9.802;2022-07-09T12:40:14;1.90;;;1.80;;
3779;SDS011;1905;52.482;9.802;2022-07-09T12:42:43;4.53;;;2.20;;
3779;SDS011;1905;52.482;9.802;2022-07-09T12:45:10;6.07;;;2.10;;
3779;SDS011;1905;52.482;9.802;2022-07-09T12:47:39;2.50;;;2.00;;
3779;SDS011;1905;52.482;9.802;2022-07-09T12:50:07;5.30;;;1.90;;
3779;SDS011;1905;52.482;9.802;2022-07-09T12:52:35;6.00;;;2.13;;
3779;SDS011;1905;52.482;9.802;2022-07-09T12:55:04;1.63;;;1.20;;
3779;SDS011;1905;52.482;9.802;2022-07-09T12:57:32;1.77;;;1.67;;
3779;SDS011;1905;52.482;9.802;2022-07-09T13:00:01;4.00;;;1.57;;
3779;SDS011;1905;52.482;9.802;2022-07-09T13:02:29;1.60;;;1.50;;
3779;SDS011;1905;52.482;9.802;2022-07-09T13:04:57;2.77;;;1.50;;
3779;SDS011;1905;52.482;9.802;2022-07-09T13:07:24;1.50;;;1.40;;
3779;SDS011;1905;52.482;9.802;2022-07-09T13:09:52;1.63;;;1.53;;
3779;SDS011;1905;52.482;9.802;2022-07-09T13:12:20;2.23;;;1.30;;
3779;SDS011;1905;52.482;9.802;2022-07-09T13:14:48;1.40;;;1.20;;
3779;SDS011;1905;52.482;9.802;2022-07-09T13:17:21;2.30;;;1.23;;
3779;SDS011;1905;52.482;9.802;2022-07-09T13:19:58;2.60;;;1.37;;
3779;SDS011;1905;52.482;9.802;2022-07-09T13:22:26;1.63;;;1.47;;
3779;SDS011;1905;52.482;9.802;2022-07-09T13:24:57;1.37;;;1.00;;
3779;SDS011;1905;52.482;9.802;2022-07-09T13:27:25;2.17;;;1.97;;
3779;SDS011;1905;52.482;9.802;2022-07-09T13:29:52;1.30;;;1.10;;
3779;SDS011;1905;52.482;9.802;2022-07-09T13:32:23;4.10;;;1.37;;
3779;SDS011;1905;52.482;9.802;2022-07-09T13:34:53;1.33;;;1.23;;
3779;SDS011;1905;52.482;9.802;2022-07-09T13:37:21;2.40;;;1.20;;
3779;SDS011;1905;52.482;9.802;2022-07-09T13:39:49;1.20;;;1.03;;
3779;SDS011;1905;52.482;9.802;2022-07-09T13:42:17;2.93;;;1.50;;
3779;SDS011;1905;52.482;9.802;2022-07-09T13:44:45;1.73;;;1.20;;
3779;SDS011;1905;52.482;9.802;2022-07-09T13:47:12;1.20;;;1.10;;
3779;SDS011;1905;52.482;9.802;2022-07-09T13:49:42;3.10;;;1.30;;
3779;SDS011;1905;52.482;9.802;2022-07-09T13:52:09;2.13;;;1.37;;
3779;SDS011;1905;52.482;9.802;2022-07-09T13:54:37;3.03;;;1.70;;
3779;SDS011;1905;52.482;9.802;2022-07-09T13:57:05;4.20;;;1.50;;
3779;SDS011;1905;52.482;9.802;2022-07-09T13:59:33;1.63;;;1.23;;
3779;SDS011;1905;52.482;9.802;2022-07-09T14:02:00;2.03;;;1.20;;
3779;SDS011;1905;52.482;9.802;2022-07-09T14:04:29;2.97;;;1.40;;
3779;SDS011;1905;52.482;9.802;2022-07-09T14:06:58;4.10;;;1.40;;
3779;SDS011;1905;52.482;9.802;2022-07-09T14:09:26;5.20;;;1.97;;
3779;SDS011;1905;52.482;9.802;2022-07-09T14:11:54;2.20;;;1.63;;
3779;SDS011;1905;52.482;9.802;2022-07-09T14:14:21;1.80;;;1.50;;
3779;SDS011;1905;52.482;9.802;2022-07-09T14:16:49;2.57;;;1.87;;
3779;SDS011;1905;52.482;9.802;2022-07-09T14:19:17;6.43;;;1.43;;
3779;SDS011;1905;52.482;9.802;2022-07-09T14:21:44;2.90;;;2.00;;
3779;SDS011;1905;52.482;9.802;2022-07-09T14:24:13;2.23;;;1.90;;
3779;SDS011;1905;52.482;9.802;2022-07-09T14:26:41;2.40;;;1.70;;
3779;SDS011;1905;52.482;9.802;2022-07-09T14:29:10;1.60;;;1.50;;
3779;SDS011;1905;52.482;9.802;2022-07-09T14:31:38;2.37;;;2.00;;
3779;SDS011;1905;52.482;9.802;2022-07-09T14:34:05;3.50;;;1.70;;
3779;SDS011;1905;52.482;9.802;2022-07-09T14:36:33;1.73;;;1.63;;
3779;SDS011;1905;52.482;9.802;2022-07-09T14:39:01;3.10;;;1.57;;
3779;SDS011;1905;52.482;9.802;2022-07-09T14:41:31;2.00;;;1.40;;
3779;SDS011;1905;52.482;9.802;2022-07-09T14:43:59;4.10;;;1.97;;
3779;SDS011;1905;52.482;9.802;2022-07-09T14:46:26;2.30;;;1.60;;
3779;SDS011;1905;52.482;9.802;2022-07-09T14:48:54;2.60;;;1.50;;
3779;SDS011;1905;52.482;9.802;2022-07-09T14:51:22;2.30;;;1.70;;
3779;SDS011;1905;52.482;9.802;2022-07-09T14:53:50;2.50;;;1.67;;
3779;SDS011;1905;52.482;9.802;2022-07-09T14:56:17;3.77;;;1.80;;
3779;SDS011;1905;52.482;9.802;2022-07-09T14:58:46;4.40;;;1.70;;
3779;SDS011;1905;52.482;9.802;2022-07-09T15:01:14;3.50;;;1.70;;
3779;SDS011;1905;52.482;9.802;2022-07-09T15:03:43;2.70;;;1.57;;
3779;SDS011;1905;52.482;9.802;2022-07-09T15:06:11;2.50;;;1.40;;
3779;SDS011;1905;52.482;9.802;2022-07-09T15:08:41;3.50;;;1.83;;
3779;SDS011;1905;52.482;9.802;2022-07-09T15:11:10;3.30;;;1.70;;
3779;SDS011;1905;52.482;9.802;2022-07-09T15:13:40;3.93;;;1.77;;
3779;SDS011;1905;52.482;9.802;2022-07-09T15:16:11;2.30;;;1.53;;
3779;SDS011;1905;52.482;9.802;2022-07-09T15:18:39;1.53;;;1.37;;
3779;SDS011;1905;52.482;9.802;2022-07-09T15:21:08;3.83;;;1.73;;
3779;SDS011;1905;52.482;9.802;2022-07-09T15:23:36;4.33;;;1.90;;